createdAt,value
2019-03-19T00:02:08.991Z,12.80
2019-03-19T00:04:37.291Z,13.68
2019-03-19T00:07:05.574Z,7.87
2019-03-19T00:09:33.827Z,9.73
2019-03-19T00:12:02.125Z,10.35
2019-03-19T00:14:30.431Z,10.23
2019-03-19T00:16:58.682Z,11.35
2019-03-19T00:19:26.991Z,11.20
2019-03-19T00:21:55.248Z,13.80
2019-03-19T00:24:23.474Z,12.35
2019-03-19T00:26:51.731Z,15.70
2019-03-19T00:29:19.956Z,12.35
2019-03-19T00:31:48.199Z,14.55
2019-03-19T00:34:16.444Z,13.85
2019-03-19T00:36:44.686Z,12.73
2019-03-19T00:39:12.931Z,14.13
2019-03-19T00:41:41.162Z,12.43
2019-03-19T00:44:09.414Z,13.90
2019-03-19T00:46:37.656Z,13.13
2019-03-19T00:49:06.932Z,9.95
2019-03-19T00:51:35.321Z,12.05
2019-03-19T00:54:03.566Z,12.95
2019-03-19T00:56:31.798Z,11.95
2019-03-19T00:59:00.076Z,11.90
2019-03-19T01:01:28.315Z,16.25
2019-03-19T01:03:56.559Z,12.95
2019-03-19T01:06:24.802Z,11.50
2019-03-19T01:08:53.044Z,11.08
2019-03-19T01:11:21.270Z,12.05
2019-03-19T01:13:49.549Z,15.28
2019-03-19T01:16:17.796Z,11.90
2019-03-19T01:18:46.035Z,13.30
2019-03-19T01:21:14.263Z,11.48
2019-03-19T01:23:42.502Z,15.40
2019-03-19T01:26:10.749Z,13.75
2019-03-19T01:28:38.986Z,11.15
2019-03-19T01:31:07.220Z,12.68
2019-03-19T01:33:35.466Z,11.93
2019-03-19T01:36:03.718Z,12.90
2019-03-19T01:38:32.031Z,13.53
2019-03-19T01:41:00.255Z,14.85
2019-03-19T01:43:28.507Z,11.22
2019-03-19T01:45:56.756Z,13.83
2019-03-19T01:48:25.006Z,13.32
2019-03-19T01:50:53.372Z,15.30
2019-03-19T01:53:21.685Z,14.07
2019-03-19T01:55:50.386Z,17.48
2019-03-19T01:58:18.623Z,13.93
2019-03-19T02:00:46.873Z,14.00
2019-03-19T02:03:15.111Z,13.72
2019-03-19T02:05:43.369Z,14.43
2019-03-19T02:08:11.603Z,14.15
2019-03-19T02:10:39.862Z,16.57
2019-03-19T02:13:08.096Z,14.60
2019-03-19T02:15:36.334Z,12.80
2019-03-19T02:18:04.584Z,14.15
2019-03-19T02:20:32.825Z,11.78
2019-03-19T02:23:01.069Z,15.60
2019-03-19T02:25:29.300Z,14.60
2019-03-19T02:27:57.558Z,18.48
2019-03-19T02:30:25.789Z,15.00
2019-03-19T02:32:54.037Z,14.40
2019-03-19T02:35:22.338Z,12.88
2019-03-19T02:37:50.577Z,13.35
2019-03-19T02:40:18.858Z,12.03
2019-03-19T02:42:47.112Z,12.98
2019-03-19T02:45:16.544Z,12.60
2019-03-19T02:47:44.831Z,13.90
2019-03-19T02:50:14.512Z,13.48
2019-03-19T02:52:42.744Z,16.15
2019-03-19T02:55:11.208Z,15.18
2019-03-19T02:57:39.494Z,14.00
2019-03-19T03:00:10.687Z,15.13
2019-03-19T03:02:38.915Z,15.35
2019-03-19T03:05:10.497Z,12.82
2019-03-19T03:07:38.756Z,14.13
2019-03-19T03:10:09.543Z,14.00
2019-03-19T03:12:37.783Z,12.63
2019-03-19T03:15:08.060Z,15.35
2019-03-19T03:17:36.296Z,12.70
2019-03-19T03:20:07.184Z,13.03
2019-03-19T03:22:35.435Z,11.90
2019-03-19T03:25:08.047Z,13.53
2019-03-19T03:27:36.294Z,12.60
2019-03-19T03:30:07.827Z,11.93
2019-03-19T03:32:36.104Z,14.60
2019-03-19T03:35:05.562Z,13.22
2019-03-19T03:37:33.844Z,13.28
2019-03-19T03:40:02.092Z,11.97
2019-03-19T03:42:30.323Z,11.05
2019-03-19T03:44:58.595Z,15.95
2019-03-19T03:47:26.835Z,13.30
2019-03-19T03:49:55.083Z,14.55
2019-03-19T03:52:23.320Z,12.23
2019-03-19T03:54:51.563Z,13.75
2019-03-19T03:57:19.805Z,14.68
2019-03-19T03:59:48.038Z,14.23
2019-03-19T04:02:16.271Z,15.05
2019-03-19T04:04:44.520Z,13.22
2019-03-19T04:07:12.762Z,13.03
2019-03-19T04:09:41.025Z,12.55
2019-03-19T04:12:09.334Z,15.18
2019-03-19T04:14:37.572Z,14.65
2019-03-19T04:17:05.812Z,16.32
2019-03-19T04:19:34.035Z,14.40
2019-03-19T04:22:02.282Z,13.88
2019-03-19T04:24:30.515Z,15.32
2019-03-19T04:26:58.848Z,15.23
2019-03-19T04:29:27.102Z,14.30
2019-03-19T04:31:55.335Z,17.10
2019-03-19T04:34:23.571Z,15.68
2019-03-19T04:36:51.824Z,13.98
2019-03-19T04:39:21.670Z,15.15
2019-03-19T04:41:49.931Z,15.30
2019-03-19T04:44:18.154Z,14.73
2019-03-19T04:46:46.390Z,16.95
2019-03-19T04:49:14.643Z,16.37
2019-03-19T04:51:42.887Z,15.88
2019-03-19T04:54:11.118Z,15.32
2019-03-19T04:56:39.371Z,16.82
2019-03-19T04:59:07.608Z,17.07
2019-03-19T05:01:35.846Z,17.65
2019-03-19T05:04:04.208Z,16.20
2019-03-19T05:06:32.496Z,15.35
2019-03-19T05:09:00.731Z,17.60
2019-03-19T05:11:29.039Z,16.02
2019-03-19T05:13:57.280Z,15.45
2019-03-19T05:16:25.514Z,19.50
2019-03-19T05:18:53.755Z,19.55
2019-03-19T05:21:22.002Z,16.95
2019-03-19T05:23:50.234Z,17.30
2019-03-19T05:26:18.480Z,17.20
2019-03-19T05:28:46.728Z,21.97
2019-03-19T05:31:14.971Z,21.17
2019-03-19T05:33:43.211Z,18.10
2019-03-19T05:36:11.479Z,19.60
2019-03-19T05:38:39.732Z,18.62
2019-03-19T05:41:08.003Z,19.02
2019-03-19T05:43:36.341Z,19.75
2019-03-19T05:46:04.598Z,20.72
2019-03-19T05:48:32.897Z,20.57
2019-03-19T05:51:01.121Z,21.48
2019-03-19T05:53:29.368Z,18.87
2019-03-19T05:55:57.599Z,18.12
2019-03-19T05:58:25.873Z,27.22
2019-03-19T06:00:54.104Z,22.22
2019-03-19T06:03:22.375Z,19.48
2019-03-19T06:05:50.611Z,22.25
2019-03-19T06:08:18.858Z,19.23
2019-03-19T06:10:47.098Z,19.15
2019-03-19T06:13:15.432Z,20.95
2019-03-19T06:15:43.678Z,23.05
2019-03-19T06:18:11.921Z,20.65
2019-03-19T06:20:40.179Z,20.52
2019-03-19T06:23:08.410Z,20.10
2019-03-19T06:25:36.672Z,23.83
2019-03-19T06:28:04.902Z,22.17
2019-03-19T06:30:33.155Z,17.65
2019-03-19T06:33:01.437Z,21.48
2019-03-19T06:35:29.715Z,20.82
2019-03-19T06:37:57.955Z,20.72
2019-03-19T06:40:26.204Z,18.62
2019-03-19T06:42:54.427Z,19.77
2019-03-19T06:45:23.220Z,25.20
2019-03-19T06:47:51.802Z,20.20
2019-03-19T06:50:20.899Z,19.40
2019-03-19T06:52:49.136Z,19.73
2019-03-19T06:55:18.632Z,18.85
2019-03-19T06:57:46.876Z,18.27
2019-03-19T07:00:20.047Z,19.25
2019-03-19T07:02:48.274Z,23.07
2019-03-19T07:05:17.479Z,20.57
2019-03-19T07:07:45.714Z,18.45
2019-03-19T07:10:16.176Z,20.27
2019-03-19T07:12:44.499Z,18.82
2019-03-19T07:15:19.419Z,20.95
2019-03-19T07:17:47.679Z,22.10
2019-03-19T07:20:18.211Z,20.80
2019-03-19T07:22:46.515Z,18.90
2019-03-19T07:25:16.016Z,19.02
2019-03-19T07:27:44.261Z,23.62
2019-03-19T07:30:25.414Z,21.73
2019-03-19T07:32:53.673Z,18.57
2019-03-19T07:35:21.915Z,19.77
2019-03-19T07:37:50.170Z,21.40
2019-03-19T07:40:18.480Z,18.92
2019-03-19T07:42:46.884Z,22.02
2019-03-19T07:45:24.887Z,20.97
2019-03-19T07:47:53.122Z,21.93
2019-03-19T07:50:22.224Z,21.62
2019-03-19T07:52:50.470Z,23.02
2019-03-19T07:55:18.696Z,21.95
2019-03-19T07:57:46.965Z,23.57
2019-03-19T08:00:17.276Z,18.37
2019-03-19T08:02:45.747Z,16.97
2019-03-19T08:05:13.988Z,17.87
2019-03-19T08:07:42.222Z,19.42
2019-03-19T08:10:14.330Z,19.57
2019-03-19T08:12:42.581Z,14.75
2019-03-19T08:15:19.851Z,15.95
2019-03-19T08:17:48.102Z,18.60
2019-03-19T08:20:17.278Z,23.25
2019-03-19T08:22:45.526Z,18.37
2019-03-19T08:25:14.522Z,22.05
2019-03-19T08:27:42.827Z,20.23
2019-03-19T08:30:24.340Z,19.00
2019-03-19T08:32:52.083Z,24.37
2019-03-19T08:35:20.318Z,20.85
2019-03-19T08:37:48.571Z,18.73
2019-03-19T08:40:18.729Z,22.48
2019-03-19T08:42:46.982Z,20.30
2019-03-19T08:45:23.191Z,18.15
2019-03-19T08:47:51.476Z,19.52
2019-03-19T08:50:23.363Z,17.37
2019-03-19T08:52:51.608Z,18.15
2019-03-19T08:55:20.012Z,17.55
2019-03-19T08:57:48.251Z,16.97
2019-03-19T09:00:18.690Z,18.62
2019-03-19T09:02:46.916Z,18.98
2019-03-19T09:05:15.375Z,17.12
2019-03-19T09:07:43.662Z,17.95
2019-03-19T09:10:16.010Z,23.12
2019-03-19T09:12:44.244Z,17.92
2019-03-19T09:15:17.032Z,20.52
2019-03-19T09:17:45.281Z,18.15
2019-03-19T09:20:16.857Z,20.77
2019-03-19T09:22:45.090Z,20.77
2019-03-19T09:25:13.410Z,19.23
2019-03-19T09:27:41.638Z,20.80
2019-03-19T09:30:17.806Z,21.65
2019-03-19T09:32:46.114Z,16.90
2019-03-19T09:35:14.361Z,21.12
2019-03-19T09:37:46.312Z,23.05
2019-03-19T09:40:19.831Z,21.97
2019-03-19T09:42:48.159Z,21.80
2019-03-19T09:45:17.373Z,21.65
2019-03-19T09:47:45.872Z,21.45
2019-03-19T09:50:21.372Z,19.10
2019-03-19T09:52:49.626Z,24.07
2019-03-19T09:55:17.876Z,21.77
2019-03-19T09:57:46.186Z,19.73
2019-03-19T10:00:21.536Z,23.55
2019-03-19T10:02:50.069Z,24.67
2019-03-19T10:05:18.475Z,21.05
2019-03-19T10:07:46.855Z,21.10
2019-03-19T10:10:21.566Z,25.08
2019-03-19T10:12:50.019Z,18.37
2019-03-19T10:15:18.401Z,17.85
2019-03-19T10:17:46.644Z,16.32
2019-03-19T10:20:18.075Z,13.53
2019-03-19T10:22:46.687Z,15.98
2019-03-19T10:25:15.870Z,16.73
2019-03-19T10:27:44.111Z,13.80
2019-03-19T10:30:15.142Z,9.30
2019-03-19T10:32:43.386Z,11.53
2019-03-19T10:35:11.623Z,9.15
2019-03-19T10:37:39.870Z,7.92
2019-03-19T10:40:09.845Z,12.70
2019-03-19T10:42:38.100Z,11.57
2019-03-19T10:45:09.739Z,11.88
2019-03-19T10:47:37.974Z,16.10
2019-03-19T10:50:15.063Z,15.13
2019-03-19T10:52:43.309Z,11.78
2019-03-19T10:55:11.534Z,13.93
2019-03-19T10:57:39.782Z,17.55
2019-03-19T11:00:19.282Z,11.83
2019-03-19T11:02:47.579Z,20.95
2019-03-19T11:05:16.151Z,13.32
2019-03-19T11:07:44.388Z,17.85
2019-03-19T11:10:14.263Z,14.73
2019-03-19T11:12:42.580Z,12.03
2019-03-19T11:15:18.045Z,11.12
2019-03-19T11:17:46.296Z,7.60
2019-03-19T11:20:19.358Z,10.25
2019-03-19T11:22:47.606Z,9.20
2019-03-19T11:25:25.603Z,6.50
2019-03-19T11:27:53.839Z,14.75
2019-03-19T11:30:24.171Z,7.50
2019-03-19T11:32:52.422Z,8.85
2019-03-19T11:35:20.650Z,5.92
2019-03-19T11:37:48.923Z,8.55
2019-03-19T11:40:18.116Z,15.32
2019-03-19T11:42:46.550Z,10.93
2019-03-19T11:45:21.271Z,10.15
2019-03-19T11:47:49.532Z,12.40
2019-03-19T11:50:22.771Z,14.03
2019-03-19T11:52:51.093Z,14.50
2019-03-19T11:55:19.382Z,11.65
2019-03-19T11:57:47.647Z,12.47
2019-03-19T12:00:22.611Z,11.53
2019-03-19T12:02:50.860Z,11.85
2019-03-19T12:05:19.095Z,8.80
2019-03-19T12:07:47.343Z,10.63
2019-03-19T12:10:15.586Z,10.85
2019-03-19T12:12:43.844Z,10.23
2019-03-19T12:15:12.348Z,9.48
2019-03-19T12:17:40.624Z,12.60
2019-03-19T12:20:12.811Z,13.85
2019-03-19T12:22:41.057Z,9.25
2019-03-19T12:25:10.527Z,7.47
2019-03-19T12:27:38.791Z,8.58
2019-03-19T12:30:22.474Z,10.55
2019-03-19T12:32:48.059Z,8.88
2019-03-19T12:35:17.583Z,10.38
2019-03-19T12:37:45.831Z,12.45
2019-03-19T12:40:21.092Z,10.90
2019-03-19T12:42:49.331Z,9.68
2019-03-19T12:45:19.772Z,9.45
2019-03-19T12:47:48.076Z,10.93
2019-03-19T12:50:18.038Z,9.00
2019-03-19T12:52:46.279Z,6.30
2019-03-19T12:55:20.610Z,10.65
2019-03-19T12:57:48.967Z,11.83
2019-03-19T13:00:34.325Z,10.93
2019-03-19T13:02:56.454Z,8.75
2019-03-19T13:05:24.721Z,12.90
2019-03-19T13:07:52.964Z,12.03
2019-03-19T13:10:24.850Z,10.82
2019-03-19T13:12:53.087Z,9.28
2019-03-19T13:15:21.504Z,11.45
2019-03-19T13:17:49.812Z,14.10
2019-03-19T13:20:22.182Z,12.50
2019-03-19T13:22:53.032Z,7.22
2019-03-19T13:25:22.165Z,7.42
2019-03-19T13:27:50.474Z,8.30
2019-03-19T13:30:30.146Z,12.15
2019-03-19T13:32:58.396Z,10.38
2019-03-19T13:35:26.637Z,11.33
2019-03-19T13:37:54.882Z,8.53
2019-03-19T13:40:23.215Z,14.40
2019-03-19T13:42:51.489Z,13.30
2019-03-19T13:45:23.056Z,15.58
2019-03-19T13:47:51.289Z,7.22
2019-03-19T13:50:20.181Z,10.45
2019-03-19T13:52:48.449Z,8.93
2019-03-19T13:55:17.614Z,10.68
2019-03-19T13:57:45.939Z,10.72
2019-03-19T14:00:15.528Z,10.95
2019-03-19T14:02:43.834Z,9.08
2019-03-19T14:05:12.901Z,8.15
2019-03-19T14:07:41.139Z,11.00
2019-03-19T14:10:11.974Z,11.33
2019-03-19T14:12:40.259Z,6.80
2019-03-19T14:15:14.185Z,10.58
2019-03-19T14:17:42.519Z,11.95
2019-03-19T14:20:13.570Z,11.45
2019-03-19T14:22:41.812Z,11.65
2019-03-19T14:25:11.188Z,12.05
2019-03-19T14:27:39.429Z,9.48
2019-03-19T14:30:10.955Z,13.05
2019-03-19T14:32:39.240Z,8.95
2019-03-19T14:35:08.426Z,12.63
2019-03-19T14:37:36.691Z,12.30
2019-03-19T14:40:08.418Z,6.67
2019-03-19T14:42:36.663Z,8.88
2019-03-19T14:45:07.343Z,9.70
2019-03-19T14:47:35.583Z,9.80
2019-03-19T14:50:06.663Z,11.40
2019-03-19T14:52:34.919Z,8.70
2019-03-19T14:55:03.219Z,11.35
2019-03-19T14:57:31.494Z,9.90
2019-03-19T14:59:59.774Z,8.98
2019-03-19T15:02:28.049Z,11.18
2019-03-19T15:04:56.279Z,13.10
2019-03-19T15:07:24.547Z,10.15
2019-03-19T15:09:52.779Z,14.28
2019-03-19T15:12:21.030Z,14.83
2019-03-19T15:14:49.283Z,11.43
2019-03-19T15:17:17.519Z,9.85
2019-03-19T15:19:45.932Z,7.92
2019-03-19T15:22:14.174Z,11.20
2019-03-19T15:24:42.415Z,10.80
2019-03-19T15:27:10.671Z,13.35
2019-03-19T15:29:38.910Z,9.60
2019-03-19T15:32:07.148Z,7.85
2019-03-19T15:34:35.444Z,11.57
2019-03-19T15:37:03.695Z,8.90
2019-03-19T15:39:31.945Z,12.65
2019-03-19T15:42:00.196Z,14.28
2019-03-19T15:44:28.439Z,11.57
2019-03-19T15:46:56.697Z,14.30
2019-03-19T15:49:24.950Z,14.15
2019-03-19T15:51:53.193Z,12.75
2019-03-19T15:54:22.378Z,12.45
2019-03-19T15:56:50.623Z,13.15
2019-03-19T15:59:18.847Z,14.13
2019-03-19T16:01:47.081Z,14.35
2019-03-19T16:04:15.329Z,14.10
2019-03-19T16:06:43.568Z,9.55
2019-03-19T16:09:11.817Z,11.50
2019-03-19T16:11:40.055Z,11.68
2019-03-19T16:14:08.294Z,9.33
2019-03-19T16:16:36.532Z,9.68
2019-03-19T16:19:04.780Z,8.15
2019-03-19T16:21:33.042Z,10.95
2019-03-19T16:24:01.280Z,9.50
2019-03-19T16:26:29.514Z,11.38
2019-03-19T16:28:57.763Z,15.10
2019-03-19T16:31:26.078Z,10.82
2019-03-19T16:33:54.323Z,9.13
2019-03-19T16:36:22.635Z,14.03
2019-03-19T16:38:50.891Z,10.45
2019-03-19T16:41:19.191Z,14.95
2019-03-19T16:43:47.443Z,13.13
2019-03-19T16:46:15.675Z,9.20
2019-03-19T16:48:43.923Z,12.28
2019-03-19T16:51:12.162Z,14.00
2019-03-19T16:53:40.417Z,14.13
2019-03-19T16:56:08.651Z,10.75
2019-03-19T16:58:36.910Z,29.02
2019-03-19T17:01:05.145Z,21.97
2019-03-19T17:03:33.364Z,13.58
2019-03-19T17:06:01.611Z,22.00
2019-03-19T17:08:29.843Z,21.23
2019-03-19T17:10:58.097Z,19.05
2019-03-19T17:13:26.331Z,19.05
2019-03-19T17:15:54.582Z,20.48
2019-03-19T17:18:22.810Z,10.63
2019-03-19T17:20:51.062Z,17.85
2019-03-19T17:23:19.297Z,11.25
2019-03-19T17:25:47.563Z,13.95
2019-03-19T17:28:22.433Z,12.25
2019-03-19T17:30:45.766Z,11.68
2019-03-19T17:33:14.029Z,16.77
2019-03-19T17:35:42.271Z,12.98
2019-03-19T17:38:10.498Z,10.75
2019-03-19T17:40:41.532Z,13.43
2019-03-19T17:43:08.714Z,15.78
2019-03-19T17:45:36.971Z,15.35
2019-03-19T17:48:15.442Z,19.57
2019-03-19T17:50:37.521Z,15.58
2019-03-19T17:53:06.442Z,18.05
2019-03-19T17:55:34.687Z,17.32
2019-03-19T17:58:02.922Z,13.55
2019-03-19T18:00:32.831Z,17.87
2019-03-19T18:03:01.095Z,14.03
2019-03-19T18:05:29.360Z,12.07
2019-03-19T18:07:57.601Z,17.40
2019-03-19T18:10:25.839Z,28.12
2019-03-19T18:12:54.086Z,19.67
2019-03-19T18:15:22.336Z,20.27
2019-03-19T18:17:50.558Z,15.13
2019-03-19T18:20:18.884Z,12.47
2019-03-19T18:22:47.110Z,17.65
2019-03-19T18:25:19.111Z,14.78
2019-03-19T18:27:47.364Z,25.32
2019-03-19T18:30:21.854Z,16.35
2019-03-19T18:32:50.091Z,16.42
2019-03-19T18:35:18.348Z,20.10
2019-03-19T18:37:46.587Z,19.48
2019-03-19T18:40:15.875Z,18.25
2019-03-19T18:42:44.115Z,26.50
2019-03-19T18:45:13.920Z,13.83
2019-03-19T18:47:42.168Z,15.90
2019-03-19T18:50:23.091Z,13.62
2019-03-19T18:52:51.325Z,16.32
2019-03-19T18:55:19.573Z,13.18
2019-03-19T18:57:47.906Z,16.20
2019-03-19T19:00:17.320Z,17.27
2019-03-19T19:02:50.294Z,13.28
2019-03-19T19:05:17.783Z,16.93
2019-03-19T19:07:46.094Z,18.87
2019-03-19T19:10:16.442Z,21.50
2019-03-19T19:12:44.897Z,17.57
2019-03-19T19:15:17.686Z,30.20
2019-03-19T19:17:46.045Z,18.35
2019-03-19T19:20:15.315Z,14.83
2019-03-19T19:22:43.802Z,13.08
2019-03-19T19:25:17.013Z,11.65
2019-03-19T19:27:45.875Z,19.90
2019-03-19T19:30:26.533Z,17.45
2019-03-19T19:33:01.971Z,14.58
2019-03-19T19:35:28.107Z,12.58
2019-03-19T19:37:59.157Z,21.25
2019-03-19T19:40:28.041Z,21.48
2019-03-19T19:42:56.929Z,19.20
2019-03-19T19:45:25.718Z,14.50
2019-03-19T19:47:54.531Z,12.75
2019-03-19T19:50:23.919Z,17.60
2019-03-19T19:52:53.238Z,21.93
2019-03-19T19:55:24.225Z,14.63
2019-03-19T19:57:53.681Z,15.25
2019-03-19T20:00:23.434Z,14.47
2019-03-19T20:02:53.873Z,17.30
2019-03-19T20:05:23.311Z,16.70
2019-03-19T20:07:53.023Z,12.65
2019-03-19T20:10:26.859Z,15.93
2019-03-19T20:12:56.850Z,15.45
2019-03-19T20:15:26.510Z,13.20
2019-03-19T20:17:56.395Z,10.45
2019-03-19T20:20:30.910Z,13.43
2019-03-19T20:23:00.821Z,13.48
2019-03-19T20:25:30.262Z,11.28
2019-03-19T20:28:00.318Z,16.05
2019-03-19T20:30:30.190Z,15.18
2019-03-19T20:32:59.953Z,17.27
2019-03-19T20:35:29.546Z,13.35
2019-03-19T20:37:59.624Z,15.53
2019-03-19T20:40:29.387Z,20.68
2019-03-19T20:43:11.476Z,19.80
2019-03-19T20:45:41.202Z,21.07
2019-03-19T20:48:10.623Z,16.10
2019-03-19T20:50:40.825Z,18.82
2019-03-19T20:53:10.412Z,20.45
2019-03-19T20:55:39.790Z,20.30
2019-03-19T20:58:09.432Z,19.48
2019-03-19T21:00:38.542Z,19.95
2019-03-19T21:03:07.497Z,23.75
2019-03-19T21:05:36.926Z,24.95
2019-03-19T21:08:05.792Z,16.23
2019-03-19T21:10:34.681Z,16.75
2019-03-19T21:13:03.472Z,22.32
2019-03-19T21:15:32.255Z,21.45
2019-03-19T21:18:00.936Z,20.25
2019-03-19T21:20:29.731Z,27.17
2019-03-19T21:22:58.153Z,20.90
2019-03-19T21:25:26.531Z,21.70
2019-03-19T21:27:54.994Z,27.32
2019-03-19T21:30:24.125Z,29.67
2019-03-19T21:32:52.433Z,28.73
2019-03-19T21:35:22.891Z,26.55
2019-03-19T21:37:51.189Z,27.15
2019-03-19T21:40:19.431Z,24.15
2019-03-19T21:42:47.676Z,30.95
2019-03-19T21:45:18.155Z,26.35
2019-03-19T21:47:46.448Z,32.33
2019-03-19T21:50:19.054Z,27.90
2019-03-19T21:52:47.304Z,27.77
2019-03-19T21:55:15.615Z,22.17
2019-03-19T21:57:43.938Z,27.25
2019-03-19T22:00:19.921Z,29.63
2019-03-19T22:02:48.147Z,24.43
2019-03-19T22:05:16.393Z,24.60
2019-03-19T22:07:44.620Z,25.12
2019-03-19T22:10:17.653Z,23.85
2019-03-19T22:12:45.896Z,23.57
2019-03-19T22:15:16.076Z,22.10
2019-03-19T22:17:44.394Z,24.82
2019-03-19T22:20:12.915Z,21.52
2019-03-19T22:22:41.146Z,26.35
2019-03-19T22:25:12.091Z,28.52
2019-03-19T22:27:40.364Z,26.15
2019-03-19T22:30:11.451Z,20.62
2019-03-19T22:32:39.868Z,22.20
2019-03-19T22:35:08.106Z,16.57
2019-03-19T22:37:36.334Z,18.90
2019-03-19T22:40:07.874Z,21.35
2019-03-19T22:42:36.149Z,20.60
2019-03-19T22:45:07.536Z,19.70
2019-03-19T22:47:35.768Z,15.30
2019-03-19T22:50:05.753Z,24.70
2019-03-19T22:52:33.988Z,25.17
2019-03-19T22:55:02.226Z,19.42
2019-03-19T22:57:30.499Z,19.98
2019-03-19T22:59:58.784Z,29.07
2019-03-19T23:02:27.007Z,22.70
2019-03-19T23:04:55.357Z,28.25
2019-03-19T23:07:23.591Z,23.35
2019-03-19T23:09:51.827Z,17.17
2019-03-19T23:12:20.069Z,21.07
2019-03-19T23:14:48.316Z,23.12
2019-03-19T23:17:16.550Z,25.35
2019-03-19T23:19:44.800Z,19.30
2019-03-19T23:22:13.027Z,20.40
2019-03-19T23:24:41.276Z,18.57
2019-03-19T23:27:09.507Z,22.48
2019-03-19T23:29:37.746Z,21.77
2019-03-19T23:32:05.979Z,20.32
2019-03-19T23:34:38.565Z,27.20
2019-03-19T23:37:04.170Z,22.17
2019-03-19T23:39:32.407Z,20.62
2019-03-19T23:42:00.648Z,24.23
2019-03-19T23:44:28.887Z,20.55
2019-03-19T23:46:57.700Z,21.10
2019-03-19T23:49:26.064Z,19.12
2019-03-19T23:51:54.365Z,23.80
2019-03-19T23:54:22.587Z,20.88
2019-03-19T23:56:50.834Z,18.50
2019-03-19T23:59:19.152Z,23.65
